createdAt,value
2018-09-21T00:01:25.689Z,17.30
2018-09-21T00:03:59.462Z,17.30
2018-09-21T00:06:27.992Z,17.30
2018-09-21T00:08:56.378Z,17.30
2018-09-21T00:11:24.945Z,17.30
2018-09-21T00:13:53.386Z,17.30
2018-09-21T00:16:21.921Z,17.30
2018-09-21T00:18:50.662Z,17.30
2018-09-21T00:21:19.498Z,17.30
2018-09-21T00:23:48.336Z,17.30
2018-09-21T00:26:16.732Z,17.30
2018-09-21T00:28:45.381Z,17.20
2018-09-21T00:31:13.805Z,17.20
2018-09-21T00:33:42.336Z,17.20
2018-09-21T00:36:10.825Z,17.20
2018-09-21T00:38:39.338Z,17.20
2018-09-21T00:41:07.775Z,17.20
2018-09-21T00:43:36.274Z,17.20
2018-09-21T00:46:14.209Z,17.20
2018-09-21T00:48:42.640Z,17.20
2018-09-21T00:51:12.240Z,17.20
2018-09-21T00:53:40.735Z,17.20
2018-09-21T00:56:09.593Z,17.20
2018-09-21T00:58:38.008Z,17.20
2018-09-21T01:01:06.450Z,17.20
2018-09-21T01:03:34.912Z,17.20
2018-09-21T01:06:07.558Z,17.20
2018-09-21T01:08:36.399Z,17.20
2018-09-21T01:11:04.837Z,17.20
2018-09-21T01:13:33.435Z,17.20
2018-09-21T01:16:01.878Z,17.20
2018-09-21T01:18:30.385Z,17.20
2018-09-21T01:20:58.902Z,17.20
2018-09-21T01:23:27.318Z,17.20
2018-09-21T01:25:55.760Z,17.20
2018-09-21T01:28:24.719Z,17.20
2018-09-21T01:30:53.241Z,17.20
2018-09-21T01:33:21.779Z,17.20
2018-09-21T01:35:50.140Z,17.20
2018-09-21T01:38:19.127Z,17.20
2018-09-21T01:40:47.528Z,17.20
2018-09-21T01:43:15.942Z,17.20
2018-09-21T01:45:44.467Z,17.20
2018-09-21T01:48:12.900Z,17.20
2018-09-21T01:50:41.285Z,17.20
2018-09-21T01:53:09.684Z,17.20
2018-09-21T01:55:38.182Z,17.20
2018-09-21T01:58:06.639Z,17.20
2018-09-21T02:00:35.002Z,17.20
2018-09-21T02:03:03.818Z,17.20
2018-09-21T02:05:32.402Z,17.20
2018-09-21T02:08:00.810Z,17.20
2018-09-21T02:10:30.873Z,17.20
2018-09-21T02:12:59.280Z,17.20
2018-09-21T02:15:27.655Z,17.20
2018-09-21T02:17:56.264Z,17.20
2018-09-21T02:20:24.616Z,17.20
2018-09-21T02:22:53.039Z,17.20
2018-09-21T02:25:21.537Z,17.20
2018-09-21T02:27:49.911Z,17.30
2018-09-21T02:30:18.321Z,17.30
2018-09-21T02:32:46.717Z,17.30
2018-09-21T02:35:15.228Z,17.40
2018-09-21T02:37:44.111Z,17.40
2018-09-21T02:40:12.566Z,17.40
2018-09-21T02:42:41.037Z,17.40
2018-09-21T02:45:09.551Z,17.40
2018-09-21T02:47:37.920Z,17.50
2018-09-21T02:50:06.448Z,17.50
2018-09-21T02:52:34.854Z,17.50
2018-09-21T02:55:03.323Z,17.50
2018-09-21T02:57:32.041Z,17.50
2018-09-21T03:00:00.508Z,17.50
2018-09-21T03:02:28.918Z,17.60
2018-09-21T03:04:57.355Z,17.60
2018-09-21T03:07:26.367Z,17.60
2018-09-21T03:09:55.320Z,17.60
2018-09-21T03:12:23.783Z,17.60
2018-09-21T03:14:52.759Z,17.60
2018-09-21T03:17:21.108Z,17.60
2018-09-21T03:19:49.628Z,17.60
2018-09-21T03:22:18.143Z,17.60
2018-09-21T03:24:46.627Z,17.60
2018-09-21T03:27:15.245Z,17.60
2018-09-21T03:29:44.470Z,17.60
2018-09-21T03:32:12.831Z,17.60
2018-09-21T03:34:41.264Z,17.60
2018-09-21T03:37:09.744Z,17.60
2018-09-21T03:39:38.155Z,17.60
2018-09-21T03:42:06.712Z,17.60
2018-09-21T03:44:35.121Z,17.60
2018-09-21T03:47:03.521Z,17.60
2018-09-21T03:49:31.983Z,17.60
2018-09-21T03:52:00.876Z,17.60
2018-09-21T03:54:29.286Z,17.60
2018-09-21T03:56:58.153Z,17.60
2018-09-21T03:59:26.628Z,17.60
2018-09-21T04:01:55.079Z,17.70
2018-09-21T04:04:23.543Z,17.70
2018-09-21T04:06:51.993Z,17.70
2018-09-21T04:09:20.394Z,17.70
2018-09-21T04:11:48.825Z,17.70
2018-09-21T04:14:17.188Z,17.70
2018-09-21T04:16:45.896Z,17.70
2018-09-21T04:19:14.237Z,17.70
2018-09-21T04:21:42.842Z,17.70
2018-09-21T04:24:11.856Z,17.80
2018-09-21T04:26:40.714Z,17.80
2018-09-21T04:29:09.078Z,17.80
2018-09-21T04:31:37.541Z,17.80
2018-09-21T04:34:05.990Z,17.80
2018-09-21T04:36:34.368Z,17.80
2018-09-21T04:39:02.994Z,17.80
2018-09-21T04:41:31.359Z,17.80
2018-09-21T04:43:59.821Z,17.80
2018-09-21T04:46:28.272Z,17.80
2018-09-21T04:48:56.703Z,17.80
2018-09-21T04:51:25.342Z,17.80
2018-09-21T04:53:58.774Z,17.80
2018-09-21T04:56:27.146Z,17.90
2018-09-21T04:58:55.589Z,17.90
2018-09-21T05:01:24.079Z,17.90
2018-09-21T05:03:52.509Z,17.90
2018-09-21T05:06:21.110Z,17.90
2018-09-21T05:08:49.585Z,17.90
2018-09-21T05:11:18.043Z,17.90
2018-09-21T05:13:46.607Z,17.90
2018-09-21T05:16:15.055Z,18.00
2018-09-21T05:18:47.261Z,18.00
2018-09-21T05:21:16.084Z,18.00
2018-09-21T05:23:44.604Z,18.00
2018-09-21T05:26:13.665Z,18.00
2018-09-21T05:28:42.371Z,18.00
2018-09-21T05:31:10.791Z,18.00
2018-09-21T05:33:39.210Z,18.00
2018-09-21T05:36:07.640Z,18.00
2018-09-21T05:38:36.071Z,18.00
2018-09-21T05:41:04.558Z,18.00
2018-09-21T05:43:32.890Z,18.10
2018-09-21T05:46:01.390Z,18.10
2018-09-21T05:48:29.695Z,18.10
2018-09-21T05:50:58.192Z,18.10
2018-09-21T05:53:26.482Z,18.20
2018-09-21T05:55:54.812Z,18.20
2018-09-21T05:58:23.093Z,18.20
2018-09-21T06:00:51.420Z,18.20
2018-09-21T06:03:19.724Z,18.20
2018-09-21T06:05:48.124Z,18.20
2018-09-21T06:08:16.426Z,18.30
2018-09-21T06:10:44.762Z,18.30
2018-09-21T06:13:13.193Z,18.40
2018-09-21T06:15:41.785Z,18.40
2018-09-21T06:18:10.170Z,18.50
2018-09-21T06:20:38.497Z,18.60
2018-09-21T06:23:06.919Z,18.70
2018-09-21T06:25:36.761Z,18.80
2018-09-21T06:28:05.102Z,18.80
2018-09-21T06:30:33.702Z,18.90
2018-09-21T06:33:01.984Z,19.00
2018-09-21T06:35:30.339Z,19.00
2018-09-21T06:37:58.622Z,19.10
2018-09-21T06:40:27.367Z,19.20
2018-09-21T06:42:55.988Z,19.30
2018-09-21T06:45:25.939Z,19.30
2018-09-21T06:47:54.391Z,19.40
2018-09-21T06:50:22.806Z,19.40
2018-09-21T06:52:51.205Z,19.50
2018-09-21T06:55:19.565Z,19.50
2018-09-21T06:57:48.079Z,19.60
2018-09-21T07:00:16.416Z,19.60
2018-09-21T07:02:45.120Z,19.60
2018-09-21T07:05:14.738Z,19.60
2018-09-21T07:07:43.361Z,19.60
2018-09-21T07:10:12.253Z,19.60
2018-09-21T07:12:40.843Z,19.60
2018-09-21T07:15:09.768Z,19.60
2018-09-21T07:17:38.250Z,19.60
2018-09-21T07:20:06.696Z,19.60
2018-09-21T07:22:35.300Z,19.60
2018-09-21T07:25:06.533Z,19.60
2018-09-21T07:27:35.273Z,19.60
2018-09-21T07:30:04.736Z,19.70
2018-09-21T07:32:36.145Z,19.70
2018-09-21T07:35:04.813Z,19.70
2018-09-21T07:37:33.752Z,19.70
2018-09-21T07:40:02.975Z,19.70
2018-09-21T07:42:31.487Z,19.70
2018-09-21T07:45:00.211Z,19.70
2018-09-21T07:47:29.585Z,19.70
2018-09-21T07:49:58.183Z,19.70
2018-09-21T07:52:26.661Z,19.70
2018-09-21T07:54:55.251Z,19.70
2018-09-21T07:57:23.774Z,19.70
2018-09-21T07:59:52.607Z,19.70
2018-09-21T08:02:21.131Z,19.70
2018-09-21T08:04:49.717Z,19.70
2018-09-21T08:07:18.243Z,19.70
2018-09-21T08:09:46.715Z,19.70
2018-09-21T08:12:15.587Z,19.70
2018-09-21T08:14:44.061Z,19.70
2018-09-21T08:17:13.054Z,19.70
2018-09-21T08:19:41.769Z,19.70
2018-09-21T08:22:10.270Z,19.70
2018-09-21T08:24:41.934Z,19.70
2018-09-21T08:27:12.146Z,19.70
2018-09-21T08:29:40.871Z,19.70
2018-09-21T08:32:09.402Z,19.70
2018-09-21T08:34:40.466Z,19.70
2018-09-21T08:37:09.108Z,19.70
2018-09-21T08:39:37.632Z,19.70
2018-09-21T08:42:06.202Z,19.80
2018-09-21T08:44:37.363Z,19.80
2018-09-21T08:47:05.956Z,19.80
2018-09-21T08:49:34.591Z,19.80
2018-09-21T08:52:03.324Z,19.80
2018-09-21T08:54:31.829Z,19.80
2018-09-21T08:57:00.453Z,19.80
2018-09-21T08:59:29.037Z,19.80
2018-09-21T09:01:57.679Z,19.80
2018-09-21T09:04:28.704Z,19.70
2018-09-21T09:06:57.355Z,19.70
2018-09-21T09:09:25.938Z,19.60
2018-09-21T09:11:54.655Z,19.50
2018-09-21T09:14:23.198Z,19.40
2018-09-21T09:16:51.826Z,19.40
2018-09-21T09:19:20.478Z,19.30
2018-09-21T09:21:49.137Z,19.20
2018-09-21T09:24:17.705Z,19.10
2018-09-21T09:26:46.291Z,18.70
2018-09-21T09:29:14.868Z,18.30
2018-09-21T09:31:43.611Z,17.90
2018-09-21T09:34:12.171Z,17.50
2018-09-21T09:36:45.106Z,17.10
2018-09-21T09:39:14.230Z,16.80
2018-09-21T09:41:42.853Z,16.50
2018-09-21T09:44:11.550Z,16.30
2018-09-21T09:46:40.142Z,16.10
2018-09-21T09:49:08.782Z,16.00
2018-09-21T09:51:37.296Z,15.80
2018-09-21T09:54:05.907Z,15.60
2018-09-21T09:56:34.447Z,15.40
2018-09-21T09:59:02.997Z,15.40
2018-09-21T10:01:31.515Z,15.40
2018-09-21T10:04:00.111Z,15.30
2018-09-21T10:06:32.389Z,15.20
2018-09-21T10:09:00.922Z,15.20
2018-09-21T10:11:29.438Z,15.20
2018-09-21T10:13:57.915Z,15.20
2018-09-21T10:16:26.412Z,15.10
2018-09-21T10:18:54.988Z,15.00
2018-09-21T10:21:23.546Z,14.90
2018-09-21T10:23:52.168Z,14.90
2018-09-21T10:26:20.710Z,14.90
2018-09-21T10:28:49.311Z,14.80
2018-09-21T10:31:17.766Z,14.80
2018-09-21T10:33:46.863Z,14.70
2018-09-21T10:36:15.254Z,14.80
2018-09-21T10:38:43.916Z,14.70
2018-09-21T10:41:12.400Z,14.70
2018-09-21T10:43:40.918Z,14.80
2018-09-21T10:46:09.382Z,14.80
2018-09-21T10:48:37.870Z,14.80
2018-09-21T10:51:06.501Z,14.80
2018-09-21T10:53:34.981Z,14.80
2018-09-21T10:56:03.485Z,14.80
2018-09-21T10:58:32.101Z,14.80
2018-09-21T11:01:00.636Z,14.90
2018-09-21T11:03:29.197Z,14.90
2018-09-21T11:05:57.783Z,14.90
2018-09-21T11:08:26.451Z,14.90
2018-09-21T11:10:54.947Z,14.90
2018-09-21T11:13:23.497Z,14.90
2018-09-21T11:15:51.988Z,14.90
2018-09-21T11:18:20.493Z,14.90
2018-09-21T11:20:49.084Z,14.90
2018-09-21T11:23:17.677Z,14.90
2018-09-21T11:25:46.197Z,14.90
2018-09-21T11:28:14.744Z,14.90
2018-09-21T11:30:43.361Z,14.90
2018-09-21T11:33:11.861Z,14.90
2018-09-21T11:35:40.322Z,14.90
2018-09-21T11:38:08.857Z,15.00
2018-09-21T11:40:37.587Z,15.10
2018-09-21T11:43:06.039Z,15.20
2018-09-21T11:45:34.824Z,15.20
2018-09-21T11:48:03.362Z,15.30
2018-09-21T11:50:31.897Z,15.40
2018-09-21T11:53:00.407Z,15.50
2018-09-21T11:55:29.023Z,15.50
2018-09-21T11:57:57.647Z,15.60
2018-09-21T12:00:27.510Z,15.70
2018-09-21T12:02:55.995Z,15.80
2018-09-21T12:05:24.627Z,15.90
2018-09-21T12:07:53.102Z,15.90
2018-09-21T12:10:21.713Z,16.00
2018-09-21T12:12:50.278Z,16.10
2018-09-21T12:15:18.763Z,16.20
2018-09-21T12:17:47.340Z,16.30
2018-09-21T12:20:15.877Z,16.40
2018-09-21T12:22:44.630Z,16.50
2018-09-21T12:25:13.070Z,16.60
2018-09-21T12:27:46.784Z,16.60
2018-09-21T12:30:15.352Z,16.70
2018-09-21T12:32:43.875Z,16.60
2018-09-21T12:35:12.460Z,16.60
2018-09-21T12:37:41.126Z,16.50
2018-09-21T12:40:09.696Z,16.50
2018-09-21T12:42:38.652Z,16.30
2018-09-21T12:45:07.096Z,16.30
2018-09-21T12:47:35.584Z,16.20
2018-09-21T12:50:07.033Z,16.10
2018-09-21T12:52:35.522Z,16.10
2018-09-21T12:55:04.047Z,16.10
2018-09-21T12:57:32.570Z,16.10
2018-09-21T13:00:01.165Z,16.10
2018-09-21T13:02:30.035Z,16.20
2018-09-21T13:04:58.507Z,16.20
2018-09-21T13:07:27.761Z,16.30
2018-09-21T13:09:56.301Z,16.30
2018-09-21T13:12:24.814Z,16.30
2018-09-21T13:14:53.233Z,16.40
2018-09-21T13:17:25.266Z,16.40
2018-09-21T13:19:53.911Z,16.40
2018-09-21T13:22:22.386Z,16.40
2018-09-21T13:24:50.955Z,16.30
2018-09-21T13:27:19.447Z,16.30
2018-09-21T13:29:47.957Z,16.30
2018-09-21T13:32:16.457Z,16.30
2018-09-21T13:34:44.923Z,16.30
2018-09-21T13:37:13.481Z,16.20
2018-09-21T13:39:41.917Z,16.10
2018-09-21T13:42:10.421Z,16.10
2018-09-21T13:44:39.029Z,16.10
2018-09-21T13:47:07.526Z,16.10
2018-09-21T13:49:36.062Z,16.10
2018-09-21T13:52:04.895Z,16.00
2018-09-21T13:54:33.399Z,16.00
2018-09-21T13:57:02.230Z,15.90
2018-09-21T13:59:30.964Z,15.90
2018-09-21T14:01:59.689Z,15.90
2018-09-21T14:04:28.227Z,15.90
2018-09-21T14:06:56.714Z,15.80
2018-09-21T14:09:25.294Z,15.80
2018-09-21T14:11:53.799Z,15.70
2018-09-21T14:14:22.573Z,15.70
2018-09-21T14:16:51.078Z,15.70
2018-09-21T14:19:19.453Z,15.70
2018-09-21T14:21:48.119Z,15.70
2018-09-21T14:24:16.690Z,15.70
2018-09-21T14:26:45.107Z,15.70
2018-09-21T14:29:13.493Z,15.70
2018-09-21T14:31:42.022Z,15.70
2018-09-21T14:34:10.948Z,15.70
2018-09-21T14:36:39.324Z,15.80
2018-09-21T14:39:09.645Z,15.80
2018-09-21T14:41:38.170Z,15.80
2018-09-21T14:44:06.972Z,15.90
2018-09-21T14:46:35.690Z,15.90
2018-09-21T14:49:04.185Z,15.80
2018-09-21T14:51:36.259Z,15.80
2018-09-21T14:54:04.696Z,15.80
2018-09-21T14:56:33.171Z,15.80
2018-09-21T14:59:07.629Z,15.70
2018-09-21T15:01:36.185Z,15.70
2018-09-21T15:04:04.679Z,15.70
2018-09-21T15:06:33.179Z,15.70
2018-09-21T15:09:01.787Z,15.70
2018-09-21T15:11:30.292Z,15.60
2018-09-21T15:13:58.649Z,15.60
2018-09-21T15:16:27.061Z,15.50
2018-09-21T15:18:55.500Z,15.50
2018-09-21T15:21:24.222Z,15.40
2018-09-21T15:23:52.635Z,15.40
2018-09-21T15:26:21.029Z,15.40
2018-09-21T15:28:49.500Z,15.40
2018-09-21T15:31:17.908Z,15.40
2018-09-21T15:33:46.285Z,15.40
2018-09-21T15:36:15.015Z,15.40
2018-09-21T15:38:43.692Z,15.30
2018-09-21T15:41:12.299Z,15.30
2018-09-21T15:43:40.878Z,15.20
2018-09-21T15:46:09.294Z,15.20
2018-09-21T15:48:37.670Z,15.10
2018-09-21T15:51:06.589Z,15.10
2018-09-21T15:53:35.099Z,15.10
2018-09-21T15:56:03.760Z,15.10
2018-09-21T15:58:32.297Z,15.10
2018-09-21T16:01:00.742Z,15.10
2018-09-21T16:03:30.658Z,15.10
2018-09-21T16:05:59.169Z,15.10
2018-09-21T16:08:27.599Z,15.10
2018-09-21T16:10:56.474Z,15.10
2018-09-21T16:13:24.949Z,15.10
2018-09-21T16:15:53.451Z,15.00
2018-09-21T16:18:21.983Z,15.00
2018-09-21T16:20:50.519Z,15.00
2018-09-21T16:23:18.934Z,15.00
2018-09-21T16:25:47.400Z,15.10
2018-09-21T16:28:15.867Z,15.00
2018-09-21T16:30:44.383Z,15.00
2018-09-21T16:33:12.939Z,14.90
2018-09-21T16:35:41.411Z,14.90
2018-09-21T16:38:09.918Z,14.90
2018-09-21T16:40:38.369Z,14.90
2018-09-21T16:43:06.921Z,14.80
2018-09-21T16:45:35.364Z,14.80
2018-09-21T16:48:03.872Z,14.80
2018-09-21T16:50:33.148Z,14.80
2018-09-21T16:53:01.628Z,14.70
2018-09-21T16:55:30.188Z,14.70
2018-09-21T16:57:58.754Z,14.70
2018-09-21T17:00:27.181Z,14.70
2018-09-21T17:02:55.607Z,14.70
2018-09-21T17:05:24.174Z,14.70
2018-09-21T17:07:52.711Z,14.70
2018-09-21T17:10:21.243Z,14.70
2018-09-21T17:12:49.623Z,14.60
2018-09-21T17:15:18.256Z,14.60
2018-09-21T17:17:46.686Z,14.60
2018-09-21T17:20:15.412Z,14.60
2018-09-21T17:22:43.922Z,14.60
2018-09-21T17:25:13.020Z,14.50
2018-09-21T17:27:41.554Z,14.50
2018-09-21T17:30:10.230Z,14.40
2018-09-21T17:32:38.747Z,14.40
2018-09-21T17:35:07.491Z,14.40
2018-09-21T17:37:35.942Z,14.30
2018-09-21T17:40:04.528Z,14.20
2018-09-21T17:42:33.083Z,14.20
2018-09-21T17:45:05.270Z,14.10
2018-09-21T17:47:33.810Z,14.10
2018-09-21T17:50:02.360Z,14.00
2018-09-21T17:52:31.121Z,13.90
2018-09-21T17:54:59.662Z,13.90
2018-09-21T17:57:28.200Z,13.80
2018-09-21T17:59:56.690Z,13.80
2018-09-21T18:02:25.267Z,13.70
2018-09-21T18:04:53.951Z,13.70
2018-09-21T18:07:22.656Z,13.60
2018-09-21T18:09:52.719Z,13.60
2018-09-21T18:12:21.651Z,13.60
2018-09-21T18:14:50.593Z,13.60
2018-09-21T18:17:19.536Z,13.60
2018-09-21T18:19:53.245Z,13.60
2018-09-21T18:22:21.782Z,13.50
2018-09-21T18:24:50.374Z,13.50
2018-09-21T18:27:18.884Z,13.50
2018-09-21T18:29:47.407Z,13.50
2018-09-21T18:32:16.012Z,13.50
2018-09-21T18:34:44.539Z,13.50
2018-09-21T18:37:13.178Z,13.50
2018-09-21T18:39:42.032Z,13.50
2018-09-21T18:42:10.835Z,13.50
2018-09-21T18:44:39.971Z,13.50
2018-09-21T18:47:08.449Z,13.50
2018-09-21T18:49:36.895Z,13.50
2018-09-21T18:52:05.513Z,13.50
2018-09-21T18:54:34.285Z,13.50
2018-09-21T18:57:02.831Z,13.50
2018-09-21T18:59:31.361Z,13.40
2018-09-21T19:01:59.963Z,13.40
2018-09-21T19:04:28.557Z,13.40
2018-09-21T19:06:57.150Z,13.40
2018-09-21T19:09:25.773Z,13.40
2018-09-21T19:11:56.207Z,13.40
2018-09-21T19:14:24.818Z,13.30
2018-09-21T19:16:53.371Z,13.30
2018-09-21T19:19:21.971Z,13.30
2018-09-21T19:21:50.611Z,13.30
2018-09-21T19:24:38.086Z,13.20
2018-09-21T19:27:06.631Z,13.20
2018-09-21T19:29:39.041Z,13.10
2018-09-21T19:32:07.751Z,13.10
2018-09-21T19:34:36.259Z,13.10
2018-09-21T19:37:04.778Z,13.10
2018-09-21T19:39:33.521Z,13.10
2018-09-21T19:42:02.075Z,13.10
2018-09-21T19:44:30.736Z,13.10
2018-09-21T19:46:59.977Z,13.10
2018-09-21T19:49:28.533Z,13.20
2018-09-21T19:52:03.391Z,13.20
2018-09-21T19:54:31.918Z,13.20
2018-09-21T19:57:00.956Z,13.20
2018-09-21T19:59:29.530Z,13.20
2018-09-21T20:01:58.055Z,13.20
2018-09-21T20:04:26.702Z,13.20
2018-09-21T20:06:55.649Z,13.20
2018-09-21T20:09:24.122Z,13.30
2018-09-21T20:11:52.837Z,13.30
2018-09-21T20:14:21.427Z,13.30
2018-09-21T20:16:50.137Z,13.20
2018-09-21T20:19:18.615Z,13.30
2018-09-21T20:21:59.861Z,13.30
2018-09-21T20:24:28.390Z,13.30
2018-09-21T20:26:58.677Z,13.30
2018-09-21T20:29:27.269Z,13.30
2018-09-21T20:32:01.084Z,13.30
2018-09-21T20:34:29.614Z,13.30
2018-09-21T20:36:59.378Z,13.40
2018-09-21T20:39:27.771Z,13.30
2018-09-21T20:41:56.436Z,13.30
2018-09-21T20:44:25.014Z,13.40
2018-09-21T20:46:53.521Z,13.30
2018-09-21T20:49:22.184Z,13.30
2018-09-21T20:51:50.784Z,13.30
2018-09-21T20:54:19.283Z,13.30
2018-09-21T20:56:47.952Z,13.30
2018-09-21T20:59:33.798Z,13.30
2018-09-21T21:02:02.378Z,13.30
2018-09-21T21:04:32.894Z,13.30
2018-09-21T21:07:11.530Z,13.30
2018-09-21T21:09:40.165Z,13.30
2018-09-21T21:12:08.744Z,13.30
2018-09-21T21:14:37.215Z,13.30
2018-09-21T21:17:05.856Z,13.30
2018-09-21T21:19:34.765Z,13.30
2018-09-21T21:22:03.255Z,13.30
2018-09-21T21:24:31.983Z,13.30
2018-09-21T21:27:00.535Z,13.20
2018-09-21T21:29:29.094Z,13.20
2018-09-21T21:31:57.626Z,13.20
2018-09-21T21:34:26.138Z,13.20
2018-09-21T21:36:56.298Z,13.20
2018-09-21T21:39:24.955Z,13.10
2018-09-21T21:41:53.579Z,13.10
2018-09-21T21:44:22.152Z,13.10
2018-09-21T21:46:50.726Z,13.10
2018-09-21T21:49:19.223Z,13.10
2018-09-21T21:51:47.742Z,13.10
2018-09-21T21:54:16.279Z,13.10
2018-09-21T21:56:44.803Z,13.00
2018-09-21T21:59:13.424Z,13.00
2018-09-21T22:01:47.121Z,13.00
2018-09-21T22:04:16.870Z,13.00
2018-09-21T22:06:45.419Z,13.00
2018-09-21T22:09:13.892Z,13.00
2018-09-21T22:11:47.637Z,12.90
2018-09-21T22:14:16.197Z,12.90
2018-09-21T22:16:44.716Z,12.90
2018-09-21T22:19:13.295Z,12.90
2018-09-21T22:21:41.796Z,12.90
2018-09-21T22:24:10.395Z,12.90
2018-09-21T22:26:39.384Z,12.90
2018-09-21T22:29:07.871Z,12.90
2018-09-21T22:31:36.437Z,12.80
2018-09-21T22:34:04.978Z,12.80
2018-09-21T22:36:33.519Z,12.80
2018-09-21T22:39:02.228Z,12.80
2018-09-21T22:41:31.483Z,12.80
2018-09-21T22:44:00.082Z,12.80
2018-09-21T22:46:28.712Z,12.80
2018-09-21T22:49:10.853Z,12.70
2018-09-21T22:51:39.478Z,12.70
2018-09-21T22:54:08.007Z,12.70
2018-09-21T22:56:36.479Z,12.60
2018-09-21T22:59:05.090Z,12.60
2018-09-21T23:01:33.681Z,12.60
2018-09-21T23:04:03.286Z,12.60
2018-09-21T23:06:33.605Z,12.60
2018-09-21T23:09:04.588Z,12.50
2018-09-21T23:11:33.237Z,12.50
2018-09-21T23:14:01.949Z,12.50
2018-09-21T23:16:30.504Z,12.50
2018-09-21T23:18:59.472Z,12.40
2018-09-21T23:21:27.900Z,12.40
2018-09-21T23:23:56.392Z,12.40
2018-09-21T23:26:25.036Z,12.40
2018-09-21T23:28:54.587Z,12.40
2018-09-21T23:31:23.080Z,12.40
2018-09-21T23:33:51.770Z,12.40
2018-09-21T23:36:20.761Z,12.40
2018-09-21T23:38:51.739Z,12.30
2018-09-21T23:41:21.000Z,12.30
2018-09-21T23:43:49.713Z,12.30
2018-09-21T23:46:18.287Z,12.40
2018-09-21T23:48:46.924Z,12.40
2018-09-21T23:51:16.552Z,12.40
2018-09-21T23:53:45.111Z,12.40
2018-09-21T23:56:16.299Z,12.40
2018-09-21T23:58:44.849Z,12.40
